sensor_id;sensor_type;location;lat;lon;timestamp;pressure;altitude;pressure_sealevel;temperature;humidity
80682;BME280;70045;40.200;44.582;2023-09-18T00:00:49;86246.13;;;17.82;45.78
80682;BME280;70045;40.200;44.582;2023-09-18T00:03:14;86234.25;;;17.72;44.75
80682;BME280;70045;40.200;44.582;2023-09-18T00:05:42;86241.66;;;17.74;44.83
80682;BME280;70045;40.200;44.582;2023-09-18T00:08:07;86245.91;;;17.71;44.56
80682;BME280;70045;40.200;44.582;2023-09-18T00:10:34;86244.91;;;17.68;44.36
80682;BME280;70045;40.200;44.582;2023-09-18T00:12:59;86247.69;;;17.65;44.71
80682;BME280;70045;40.200;44.582;2023-09-18T00:15:25;86246.69;;;17.62;44.91
80682;BME280;70045;40.200;44.582;2023-09-18T00:17:53;86241.03;;;17.55;44.66
80682;BME280;70045;40.200;44.582;2023-09-18T00:20:18;86243.28;;;17.47;45.05
80682;BME280;70045;40.200;44.582;2023-09-18T00:22:44;86241.97;;;17.42;45.38
80682;BME280;70045;40.200;44.582;2023-09-18T00:25:09;86240.53;;;17.41;44.85
80682;BME280;70045;40.200;44.582;2023-09-18T00:27:35;86245.47;;;17.39;45.17
80682;BME280;70045;40.200;44.582;2023-09-18T00:30:04;86248.25;;;17.36;45.75
80682;BME280;70045;40.200;44.582;2023-09-18T00:32:29;86240.41;;;17.36;44.96
80682;BME280;70045;40.200;44.582;2023-09-18T00:34:55;86243.00;;;17.36;45.02
80682;BME280;70045;40.200;44.582;2023-09-18T00:37:21;86246.94;;;17.40;44.80
80682;BME280;70045;40.200;44.582;2023-09-18T00:39:46;86245.94;;;17.38;44.71
80682;BME280;70045;40.200;44.582;2023-09-18T00:42:14;86251.78;;;17.33;45.24
80682;BME280;70045;40.200;44.582;2023-09-18T00:44:40;86258.28;;;17.37;44.63
80682;BME280;70045;40.200;44.582;2023-09-18T00:47:07;86252.72;;;17.44;44.72
80682;BME280;70045;40.200;44.582;2023-09-18T00:49:32;86252.72;;;17.54;44.73
80682;BME280;70045;40.200;44.582;2023-09-18T00:51:58;86261.13;;;17.58;45.04
80682;BME280;70045;40.200;44.582;2023-09-18T00:54:26;86257.03;;;17.57;45.37
80682;BME280;70045;40.200;44.582;2023-09-18T00:56:52;86255.06;;;17.52;45.60
80682;BME280;70045;40.200;44.582;2023-09-18T00:59:18;86257.38;;;17.49;45.25
80682;BME280;70045;40.200;44.582;2023-09-18T01:01:44;86251.19;;;17.38;45.24
80682;BME280;70045;40.200;44.582;2023-09-18T01:04:10;86247.59;;;17.26;46.07
80682;BME280;70045;40.200;44.582;2023-09-18T01:06:38;86256.00;;;17.30;46.13
80682;BME280;70045;40.200;44.582;2023-09-18T01:09:03;86247.69;;;17.31;45.24
80682;BME280;70045;40.200;44.582;2023-09-18T01:16:58;86250.13;;;17.44;45.29
80682;BME280;70045;40.200;44.582;2023-09-18T01:19:37;86253.44;;;17.54;45.21
80682;BME280;70045;40.200;44.582;2023-09-18T01:22:03;86254.28;;;17.60;45.02
80682;BME280;70045;40.200;44.582;2023-09-18T01:24:28;86248.91;;;17.55;45.53
80682;BME280;70045;40.200;44.582;2023-09-18T01:26:53;86247.78;;;17.46;45.52
80682;BME280;70045;40.200;44.582;2023-09-18T01:29:21;86247.94;;;17.43;46.04
80682;BME280;70045;40.200;44.582;2023-09-18T01:31:47;86251.28;;;17.43;46.14
80682;BME280;70045;40.200;44.582;2023-09-18T01:34:12;86259.72;;;17.47;46.43
80682;BME280;70045;40.200;44.582;2023-09-18T01:36:38;86261.44;;;17.50;45.79
80682;BME280;70045;40.200;44.582;2023-09-18T01:39:04;86236.44;;;17.40;45.47
80682;BME280;70045;40.200;44.582;2023-09-18T01:41:33;86259.06;;;17.62;46.23
80682;BME280;70045;40.200;44.582;2023-09-18T01:43:58;86258.63;;;17.63;46.17
80682;BME280;70045;40.200;44.582;2023-09-18T01:46:24;86255.00;;;17.61;45.55
80682;BME280;70045;40.200;44.582;2023-09-18T01:48:52;86257.00;;;17.66;45.48
80682;BME280;70045;40.200;44.582;2023-09-18T01:51:17;86258.34;;;17.61;46.31
80682;BME280;70045;40.200;44.582;2023-09-18T01:53:45;86257.53;;;17.46;46.31
80682;BME280;70045;40.200;44.582;2023-09-18T01:56:11;86258.56;;;17.39;46.24
80682;BME280;70045;40.200;44.582;2023-09-18T01:58:36;86260.03;;;17.40;46.42
80682;BME280;70045;40.200;44.582;2023-09-18T02:01:02;86262.38;;;17.38;46.34
80682;BME280;70045;40.200;44.582;2023-09-18T02:03:27;86262.56;;;17.25;47.07
80682;BME280;70045;40.200;44.582;2023-09-18T02:05:55;86266.81;;;17.23;46.71
80682;BME280;70045;40.200;44.582;2023-09-18T02:08:20;86268.25;;;17.24;46.45
80682;BME280;70045;40.200;44.582;2023-09-18T02:10:46;86262.13;;;17.27;46.33
80682;BME280;70045;40.200;44.582;2023-09-18T02:13:12;86263.25;;;17.35;46.41
80682;BME280;70045;40.200;44.582;2023-09-18T02:15:37;86265.28;;;17.40;46.43
80682;BME280;70045;40.200;44.582;2023-09-18T02:18:06;86264.84;;;17.42;46.67
80682;BME280;70045;40.200;44.582;2023-09-18T02:20:31;86246.56;;;17.23;46.66
80682;BME280;70045;40.200;44.582;2023-09-18T02:22:56;86249.28;;;17.29;46.21
80682;BME280;70045;40.200;44.582;2023-09-18T02:25:22;86271.97;;;17.41;46.69
80682;BME280;70045;40.200;44.582;2023-09-18T02:27:47;86266.16;;;17.37;47.10
80682;BME280;70045;40.200;44.582;2023-09-18T02:30:15;86271.97;;;17.41;46.45
80682;BME280;70045;40.200;44.582;2023-09-18T02:32:41;86272.53;;;17.45;46.69
80682;BME280;70045;40.200;44.582;2023-09-18T02:35:06;86265.13;;;17.44;46.32
80682;BME280;70045;40.200;44.582;2023-09-18T02:37:32;86273.13;;;17.40;46.35
80682;BME280;70045;40.200;44.582;2023-09-18T02:39:57;86272.00;;;17.32;46.83
80682;BME280;70045;40.200;44.582;2023-09-18T02:42:25;86275.97;;;17.27;47.70
80682;BME280;70045;40.200;44.582;2023-09-18T02:44:50;86283.13;;;17.18;46.92
80682;BME280;70045;40.200;44.582;2023-09-18T02:47:16;86284.00;;;17.15;47.06
80682;BME280;70045;40.200;44.582;2023-09-18T02:49:41;86284.59;;;17.09;47.78
80682;BME280;70045;40.200;44.582;2023-09-18T02:52:06;86287.78;;;17.13;47.45
80682;BME280;70045;40.200;44.582;2023-09-18T02:54:35;86267.00;;;17.01;48.79
80682;BME280;70045;40.200;44.582;2023-09-18T02:57:00;86284.88;;;17.11;47.37
80682;BME280;70045;40.200;44.582;2023-09-18T02:59:25;86286.72;;;17.20;47.48
80682;BME280;70045;40.200;44.582;2023-09-18T03:01:51;86291.53;;;17.22;47.39
80682;BME280;70045;40.200;44.582;2023-09-18T03:04:16;86289.78;;;17.28;46.80
80682;BME280;70045;40.200;44.582;2023-09-18T03:06:44;86297.03;;;17.33;46.77
80682;BME280;70045;40.200;44.582;2023-09-18T03:09:10;86295.41;;;17.36;47.25
80682;BME280;70045;40.200;44.582;2023-09-18T03:11:35;86294.81;;;17.41;46.47
80682;BME280;70045;40.200;44.582;2023-09-18T03:14:00;86301.69;;;17.38;46.62
80682;BME280;70045;40.200;44.582;2023-09-18T03:16:26;86310.75;;;17.28;46.52
80682;BME280;70045;40.200;44.582;2023-09-18T03:18:54;86311.50;;;17.19;46.34
80682;BME280;70045;40.200;44.582;2023-09-18T03:21:19;86308.44;;;17.11;46.27
80682;BME280;70045;40.200;44.582;2023-09-18T03:23:44;86301.63;;;17.05;46.58
80682;BME280;70045;40.200;44.582;2023-09-18T03:26:10;86305.97;;;17.08;46.45
80682;BME280;70045;40.200;44.582;2023-09-18T03:28:36;86313.41;;;17.09;46.25
80682;BME280;70045;40.200;44.582;2023-09-18T03:31:04;86309.03;;;17.06;46.47
80682;BME280;70045;40.200;44.582;2023-09-18T03:33:29;86316.88;;;17.06;46.31
80682;BME280;70045;40.200;44.582;2023-09-18T03:35:54;86305.53;;;17.09;46.09
80682;BME280;70045;40.200;44.582;2023-09-18T03:38:20;86320.34;;;17.22;46.01
80682;BME280;70045;40.200;44.582;2023-09-18T03:40:45;86322.09;;;17.25;45.97
80682;BME280;70045;40.200;44.582;2023-09-18T03:43:13;86325.00;;;17.27;46.00
80682;BME280;70045;40.200;44.582;2023-09-18T03:45:39;86331.97;;;17.30;46.25
80682;BME280;70045;40.200;44.582;2023-09-18T03:48:05;86333.75;;;17.24;46.25
80682;BME280;70045;40.200;44.582;2023-09-18T03:50:30;86331.44;;;17.17;46.34
80682;BME280;70045;40.200;44.582;2023-09-18T03:52:55;86330.88;;;17.12;46.28
80682;BME280;70045;40.200;44.582;2023-09-18T03:55:24;86335.75;;;17.29;46.18
80682;BME280;70045;40.200;44.582;2023-09-18T03:57:49;86331.06;;;17.42;45.89
80682;BME280;70045;40.200;44.582;2023-09-18T04:00:14;86326.09;;;17.54;45.61
80682;BME280;70045;40.200;44.582;2023-09-18T04:02:40;86325.63;;;17.64;45.50
80682;BME280;70045;40.200;44.582;2023-09-18T04:05:06;86333.88;;;17.72;45.21
80682;BME280;70045;40.200;44.582;2023-09-18T04:07:34;86326.88;;;17.78;44.71
80682;BME280;70045;40.200;44.582;2023-09-18T04:09:59;86323.06;;;17.79;44.80
80682;BME280;70045;40.200;44.582;2023-09-18T04:12:25;86328.63;;;17.81;44.90
80682;BME280;70045;40.200;44.582;2023-09-18T04:14:52;86324.25;;;17.78;44.79
80682;BME280;70045;40.200;44.582;2023-09-18T04:17:18;86330.22;;;17.79;44.68
80682;BME280;70045;40.200;44.582;2023-09-18T04:19:46;86333.72;;;17.76;44.73
80682;BME280;70045;40.200;44.582;2023-09-18T04:22:12;86332.13;;;17.78;44.55
80682;BME280;70045;40.200;44.582;2023-09-18T04:24:37;86333.84;;;17.81;44.36
80682;BME280;70045;40.200;44.582;2023-09-18T04:27:03;86331.50;;;17.83;44.56
80682;BME280;70045;40.200;44.582;2023-09-18T04:29:28;86339.38;;;17.83;44.26
80682;BME280;70045;40.200;44.582;2023-09-18T04:31:56;86338.53;;;17.86;44.55
80682;BME280;70045;40.200;44.582;2023-09-18T04:34:22;86339.66;;;17.85;44.55
80682;BME280;70045;40.200;44.582;2023-09-18T04:36:47;86334.41;;;17.85;44.22
80682;BME280;70045;40.200;44.582;2023-09-18T04:39:13;86339.66;;;17.85;44.36
80682;BME280;70045;40.200;44.582;2023-09-18T04:41:38;86333.56;;;17.88;44.17
80682;BME280;70045;40.200;44.582;2023-09-18T04:44:06;86341.16;;;17.86;44.14
80682;BME280;70045;40.200;44.582;2023-09-18T04:46:33;86341.88;;;17.87;44.52
80682;BME280;70045;40.200;44.582;2023-09-18T04:48:59;86348.69;;;17.84;44.53
80682;BME280;70045;40.200;44.582;2023-09-18T04:51:24;86331.84;;;17.76;44.15
80682;BME280;70045;40.200;44.582;2023-09-18T04:53:49;86348.50;;;17.64;44.38
80682;BME280;70045;40.200;44.582;2023-09-18T04:56:18;86352.72;;;17.61;44.35
80682;BME280;70045;40.200;44.582;2023-09-18T04:58:43;86351.66;;;17.68;44.41
80682;BME280;70045;40.200;44.582;2023-09-18T05:01:08;86352.66;;;17.80;44.01
80682;BME280;70045;40.200;44.582;2023-09-18T05:03:34;86354.09;;;17.81;43.82
80682;BME280;70045;40.200;44.582;2023-09-18T05:06:00;86357.16;;;17.79;43.75
80682;BME280;70045;40.200;44.582;2023-09-18T05:08:28;86346.66;;;17.79;43.68
80682;BME280;70045;40.200;44.582;2023-09-18T05:10:53;86355.88;;;17.75;43.70
80682;BME280;70045;40.200;44.582;2023-09-18T05:13:19;86340.16;;;17.75;43.67
80682;BME280;70045;40.200;44.582;2023-09-18T05:15:44;86352.63;;;17.89;43.83
80682;BME280;70045;40.200;44.582;2023-09-18T05:18:10;86347.03;;;18.05;43.26
80682;BME280;70045;40.200;44.582;2023-09-18T05:20:39;86348.03;;;18.08;42.74
80682;BME280;70045;40.200;44.582;2023-09-18T05:23:05;86347.34;;;17.98;43.06
80682;BME280;70045;40.200;44.582;2023-09-18T05:25:30;86349.53;;;18.00;43.25
80682;BME280;70045;40.200;44.582;2023-09-18T05:27:56;86352.13;;;18.09;43.12
80682;BME280;70045;40.200;44.582;2023-09-18T05:30:28;86353.63;;;18.25;42.79
80682;BME280;70045;40.200;44.582;2023-09-18T05:32:58;86346.09;;;18.42;42.66
80682;BME280;70045;40.200;44.582;2023-09-18T05:35:23;86353.22;;;18.66;42.23
80682;BME280;70045;40.200;44.582;2023-09-18T05:37:49;86355.47;;;18.82;41.98
80682;BME280;70045;40.200;44.582;2023-09-18T05:40:15;86359.31;;;19.11;41.30
80682;BME280;70045;40.200;44.582;2023-09-18T05:42:42;86351.63;;;19.22;40.90
80682;BME280;70045;40.200;44.582;2023-09-18T05:45:14;86357.34;;;19.35;40.52
80682;BME280;70045;40.200;44.582;2023-09-18T05:47:40;86352.63;;;19.54;40.41
80682;BME280;70045;40.200;44.582;2023-09-18T05:50:07;86357.53;;;19.77;40.08
80682;BME280;70045;40.200;44.582;2023-09-18T05:52:36;86351.91;;;19.99;39.84
80682;BME280;70045;40.200;44.582;2023-09-18T05:55:02;86358.94;;;20.07;39.09
80682;BME280;70045;40.200;44.582;2023-09-18T05:57:30;86358.56;;;20.15;38.54
80682;BME280;70045;40.200;44.582;2023-09-18T05:59:56;86361.81;;;20.24;39.13
80682;BME280;70045;40.200;44.582;2023-09-18T06:02:22;86365.06;;;20.34;39.01
80682;BME280;70045;40.200;44.582;2023-09-18T06:04:47;86360.25;;;20.53;38.61
80682;BME280;70045;40.200;44.582;2023-09-18T06:07:12;86341.00;;;20.62;38.53
80682;BME280;70045;40.200;44.582;2023-09-18T06:09:41;86362.06;;;20.62;36.93
80682;BME280;70045;40.200;44.582;2023-09-18T06:12:07;86363.53;;;20.63;38.18
80682;BME280;70045;40.200;44.582;2023-09-18T06:14:33;86362.97;;;20.59;38.38
80682;BME280;70045;40.200;44.582;2023-09-18T06:16:58;86343.75;;;20.53;38.01
80682;BME280;70045;40.200;44.582;2023-09-18T06:19:23;86363.00;;;20.79;38.37
80682;BME280;70045;40.200;44.582;2023-09-18T06:21:51;86364.31;;;20.90;37.53
80682;BME280;70045;40.200;44.582;2023-09-18T06:24:17;86371.16;;;21.02;37.45
80682;BME280;70045;40.200;44.582;2023-09-18T06:26:42;86357.22;;;20.96;37.25
80682;BME280;70045;40.200;44.582;2023-09-18T06:29:08;86367.06;;;21.21;37.63
80682;BME280;70045;40.200;44.582;2023-09-18T06:31:33;86363.66;;;21.41;37.03
80682;BME280;70045;40.200;44.582;2023-09-18T06:34:01;86359.75;;;21.57;36.00
80682;BME280;70045;40.200;44.582;2023-09-18T06:36:27;86363.13;;;21.90;36.28
80682;BME280;70045;40.200;44.582;2023-09-18T06:38:52;86365.91;;;22.07;35.83
80682;BME280;70045;40.200;44.582;2023-09-18T06:41:18;86362.84;;;22.14;36.17
80682;BME280;70045;40.200;44.582;2023-09-18T06:43:43;86357.78;;;22.10;35.81
80682;BME280;70045;40.200;44.582;2023-09-18T06:46:12;86357.56;;;22.14;34.62
80682;BME280;70045;40.200;44.582;2023-09-18T06:48:37;86355.16;;;22.16;35.74
80682;BME280;70045;40.200;44.582;2023-09-18T06:51:03;86358.25;;;22.09;34.94
80682;BME280;70045;40.200;44.582;2023-09-18T06:55:54;86361.56;;;22.04;35.47
80682;BME280;70045;40.200;44.582;2023-09-18T06:58:22;86359.66;;;22.10;34.48
80682;BME280;70045;40.200;44.582;2023-09-18T07:00:48;86352.28;;;22.14;35.00
80682;BME280;70045;40.200;44.582;2023-09-18T07:03:13;86356.19;;;22.24;35.10
80682;BME280;70045;40.200;44.582;2023-09-18T07:05:41;86351.47;;;22.34;34.61
80682;BME280;70045;40.200;44.582;2023-09-18T07:08:07;86354.88;;;22.40;34.78
80682;BME280;70045;40.200;44.582;2023-09-18T07:10:35;86355.19;;;22.53;34.35
80682;BME280;70045;40.200;44.582;2023-09-18T07:13:01;86362.72;;;22.72;34.23
80682;BME280;70045;40.200;44.582;2023-09-18T07:15:26;86368.03;;;22.78;34.75
80682;BME280;70045;40.200;44.582;2023-09-18T07:17:51;86353.59;;;22.73;34.28
80682;BME280;70045;40.200;44.582;2023-09-18T07:20:17;86358.22;;;22.89;34.45
80682;BME280;70045;40.200;44.582;2023-09-18T07:22:46;86351.75;;;22.90;33.68
80682;BME280;70045;40.200;44.582;2023-09-18T07:25:15;86358.75;;;22.99;33.39
80682;BME280;70045;40.200;44.582;2023-09-18T07:27:40;86356.13;;;23.05;33.54
80682;BME280;70045;40.200;44.582;2023-09-18T07:32:08;86318.31;;;22.82;33.99
80682;BME280;70045;40.200;44.582;2023-09-18T07:34:46;86347.81;;;23.23;32.55
80682;BME280;70045;40.200;44.582;2023-09-18T07:37:11;86330.28;;;23.31;33.25
80682;BME280;70045;40.200;44.582;2023-09-18T07:39:36;86342.09;;;23.59;32.86
80682;BME280;70045;40.200;44.582;2023-09-18T07:42:02;86338.97;;;23.66;32.65
80682;BME280;70045;40.200;44.582;2023-09-18T07:44:27;86333.22;;;23.79;31.44
80682;BME280;70045;40.200;44.582;2023-09-18T07:46:56;86341.41;;;23.75;31.44
80682;BME280;70045;40.200;44.582;2023-09-18T07:49:21;86343.13;;;24.01;32.63
80682;BME280;70045;40.200;44.582;2023-09-18T07:51:46;86346.00;;;24.25;32.04
80682;BME280;70045;40.200;44.582;2023-09-18T07:54:14;86326.25;;;24.38;31.87
80682;BME280;70045;40.200;44.582;2023-09-18T07:56:40;86340.94;;;24.44;31.82
80682;BME280;70045;40.200;44.582;2023-09-18T07:59:08;86336.09;;;24.49;31.10
80682;BME280;70045;40.200;44.582;2023-09-18T08:01:34;86333.19;;;24.58;31.65
80682;BME280;70045;40.200;44.582;2023-09-18T08:03:59;86332.94;;;24.61;31.53
80682;BME280;70045;40.200;44.582;2023-09-18T08:06:25;86326.66;;;24.70;31.44
80682;BME280;70045;40.200;44.582;2023-09-18T08:08:50;86313.09;;;24.96;31.11
80682;BME280;70045;40.200;44.582;2023-09-18T08:11:18;86319.72;;;25.26;29.24
80682;BME280;70045;40.200;44.582;2023-09-18T08:13:44;86315.78;;;25.44;30.07
80682;BME280;70045;40.200;44.582;2023-09-18T08:16:09;86297.19;;;25.49;30.24
80682;BME280;70045;40.200;44.582;2023-09-18T08:18:35;86309.88;;;25.62;29.86
80682;BME280;70045;40.200;44.582;2023-09-18T08:21:00;86308.47;;;25.97;29.52
80682;BME280;70045;40.200;44.582;2023-09-18T08:23:28;86312.47;;;26.09;27.92
80682;BME280;70045;40.200;44.582;2023-09-18T08:25:54;86314.59;;;25.81;29.52
80682;BME280;70045;40.200;44.582;2023-09-18T08:28:19;86307.59;;;25.78;29.79
80682;BME280;70045;40.200;44.582;2023-09-18T08:30:45;86308.13;;;27.11;28.34
80682;BME280;70045;40.200;44.582;2023-09-18T08:33:10;86300.97;;;28.14;25.98
80682;BME280;70045;40.200;44.582;2023-09-18T08:35:40;86297.13;;;28.87;24.52
80682;BME280;70045;40.200;44.582;2023-09-18T08:38:08;86297.53;;;28.91;23.28
80682;BME280;70045;40.200;44.582;2023-09-18T08:40:33;86303.38;;;29.03;23.10
80682;BME280;70045;40.200;44.582;2023-09-18T08:42:59;86299.03;;;29.54;23.95
80682;BME280;70045;40.200;44.582;2023-09-18T08:45:37;86301.47;;;29.78;22.67
80682;BME280;70045;40.200;44.582;2023-09-18T08:48:06;86299.47;;;29.44;23.22
80682;BME280;70045;40.200;44.582;2023-09-18T08:50:32;86299.78;;;29.89;24.85
80682;BME280;70045;40.200;44.582;2023-09-18T08:52:59;86290.44;;;30.58;23.22
80682;BME280;70045;40.200;44.582;2023-09-18T08:55:25;86291.63;;;31.36;23.54
80682;BME280;70045;40.200;44.582;2023-09-18T08:57:51;86293.94;;;32.28;22.14
80682;BME280;70045;40.200;44.582;2023-09-18T09:00:20;86283.19;;;32.51;19.53
80682;BME280;70045;40.200;44.582;2023-09-18T09:02:46;86282.66;;;33.30;21.41
80682;BME280;70045;40.200;44.582;2023-09-18T09:05:14;86260.47;;;33.21;19.71
80682;BME280;70045;40.200;44.582;2023-09-18T09:07:40;86283.28;;;33.61;20.68
80682;BME280;70045;40.200;44.582;2023-09-18T09:10:05;86280.81;;;33.96;19.28
80682;BME280;70045;40.200;44.582;2023-09-18T09:12:55;86292.28;;;33.96;19.19
80682;BME280;70045;40.200;44.582;2023-09-18T09:15:28;86280.78;;;34.04;19.08
80682;BME280;70045;40.200;44.582;2023-09-18T09:18:05;86274.16;;;34.63;17.25
80682;BME280;70045;40.200;44.582;2023-09-18T09:20:31;86274.47;;;34.09;18.74
80682;BME280;70045;40.200;44.582;2023-09-18T09:23:04;86263.59;;;34.82;16.61
80682;BME280;70045;40.200;44.582;2023-09-18T09:25:31;86266.16;;;35.23;18.66
80682;BME280;70045;40.200;44.582;2023-09-18T09:28:02;86254.28;;;35.26;15.91
80682;BME280;70045;40.200;44.582;2023-09-18T09:30:28;86242.34;;;35.12;17.59
80682;BME280;70045;40.200;44.582;2023-09-18T09:32:56;86255.97;;;35.14;17.20
80682;BME280;70045;40.200;44.582;2023-09-18T09:35:32;86250.63;;;35.31;16.20
80682;BME280;70045;40.200;44.582;2023-09-18T09:38:07;86250.94;;;34.93;15.83
80682;BME280;70045;40.200;44.582;2023-09-18T09:40:32;86253.09;;;34.94;17.33
80682;BME280;70045;40.200;44.582;2023-09-18T09:42:58;86246.47;;;35.13;18.18
80682;BME280;70045;40.200;44.582;2023-09-18T09:45:24;86247.59;;;35.79;17.27
80682;BME280;70045;40.200;44.582;2023-09-18T09:47:57;86248.31;;;36.07;15.93
80682;BME280;70045;40.200;44.582;2023-09-18T09:52:18;86243.06;;;36.27;15.38
80682;BME280;70045;40.200;44.582;2023-09-18T09:54:45;86239.56;;;36.16;14.82
80682;BME280;70045;40.200;44.582;2023-09-18T09:57:11;86237.13;;;36.38;16.68
80682;BME280;70045;40.200;44.582;2023-09-18T09:59:39;86239.16;;;36.20;15.30
80682;BME280;70045;40.200;44.582;2023-09-18T10:02:07;86229.94;;;36.97;15.04
80682;BME280;70045;40.200;44.582;2023-09-18T10:04:34;86238.31;;;37.67;15.21
80682;BME280;70045;40.200;44.582;2023-09-18T10:07:07;86238.28;;;37.77;15.09
80682;BME280;70045;40.200;44.582;2023-09-18T10:09:39;86243.25;;;36.11;14.38
80682;BME280;70045;40.200;44.582;2023-09-18T10:12:15;86245.25;;;36.75;14.19
80682;BME280;70045;40.200;44.582;2023-09-18T10:14:45;86230.06;;;36.52;14.65
80682;BME280;70045;40.200;44.582;2023-09-18T10:17:16;86240.47;;;37.03;14.75
80682;BME280;70045;40.200;44.582;2023-09-18T10:19:49;86159.00;;;37.65;14.61
80682;BME280;70045;40.200;44.582;2023-09-18T10:22:30;86224.88;;;38.18;13.79
80682;BME280;70045;40.200;44.582;2023-09-18T10:25:02;86229.91;;;37.54;14.48
80682;BME280;70045;40.200;44.582;2023-09-18T10:27:30;86219.78;;;37.74;14.37
80682;BME280;70045;40.200;44.582;2023-09-18T10:29:57;86220.22;;;37.80;14.42
80682;BME280;70045;40.200;44.582;2023-09-18T10:32:27;86213.09;;;37.55;14.10
80682;BME280;70045;40.200;44.582;2023-09-18T10:34:53;86218.53;;;37.75;14.51
80682;BME280;70045;40.200;44.582;2023-09-18T10:37:19;86206.75;;;38.21;13.45
80682;BME280;70045;40.200;44.582;2023-09-18T10:39:47;86211.75;;;38.66;13.35
80682;BME280;70045;40.200;44.582;2023-09-18T10:42:16;86216.84;;;38.71;13.82
80682;BME280;70045;40.200;44.582;2023-09-18T10:44:46;86217.22;;;37.95;13.34
80682;BME280;70045;40.200;44.582;2023-09-18T10:47:12;86212.69;;;35.47;15.33
80682;BME280;70045;40.200;44.582;2023-09-18T10:49:38;86210.81;;;35.22;16.31
80682;BME280;70045;40.200;44.582;2023-09-18T10:52:04;86213.75;;;35.96;15.15
80682;BME280;70045;40.200;44.582;2023-09-18T10:54:30;86212.66;;;36.63;15.01
80682;BME280;70045;40.200;44.582;2023-09-18T10:56:59;86197.31;;;37.42;13.79
80682;BME280;70045;40.200;44.582;2023-09-18T10:59:24;86197.91;;;36.84;13.91
80682;BME280;70045;40.200;44.582;2023-09-18T11:01:50;86200.00;;;37.42;13.31
80682;BME280;70045;40.200;44.582;2023-09-18T11:04:20;86199.28;;;37.90;13.35
80682;BME280;70045;40.200;44.582;2023-09-18T11:09:25;86206.16;;;35.85;14.67
80682;BME280;70045;40.200;44.582;2023-09-18T11:12:03;86199.00;;;35.52;15.13
80682;BME280;70045;40.200;44.582;2023-09-18T11:14:58;86200.16;;;34.72;15.93
80682;BME280;70045;40.200;44.582;2023-09-18T11:17:58;86204.53;;;33.76;16.71
80682;BME280;70045;40.200;44.582;2023-09-18T11:20:27;86215.38;;;32.89;17.05
80682;BME280;70045;40.200;44.582;2023-09-18T11:22:58;86213.97;;;32.34;17.76
80682;BME280;70045;40.200;44.582;2023-09-18T11:25:42;86214.25;;;31.77;18.43
80682;BME280;70045;40.200;44.582;2023-09-18T11:28:13;86206.75;;;31.67;18.77
80682;BME280;70045;40.200;44.582;2023-09-18T11:30:53;86202.88;;;31.32;18.99
80682;BME280;70045;40.200;44.582;2023-09-18T11:33:37;86205.59;;;30.95;19.23
80682;BME280;70045;40.200;44.582;2023-09-18T11:36:08;86209.78;;;30.54;19.27
80682;BME280;70045;40.200;44.582;2023-09-18T11:38:54;86205.75;;;32.40;17.79
80682;BME280;70045;40.200;44.582;2023-09-18T11:41:25;86197.53;;;33.81;16.92
80682;BME280;70045;40.200;44.582;2023-09-18T11:43:51;86199.63;;;34.91;15.72
80682;BME280;70045;40.200;44.582;2023-09-18T11:46:18;86204.72;;;36.11;15.16
80682;BME280;70045;40.200;44.582;2023-09-18T11:48:44;86201.69;;;34.57;15.96
80682;BME280;70045;40.200;44.582;2023-09-18T11:51:12;86205.47;;;34.79;16.34
80682;BME280;70045;40.200;44.582;2023-09-18T11:53:40;86195.09;;;34.76;15.34
80682;BME280;70045;40.200;44.582;2023-09-18T11:56:10;86193.59;;;35.52;15.17
80682;BME280;70045;40.200;44.582;2023-09-18T11:58:46;86196.69;;;34.96;15.61
80682;BME280;70045;40.200;44.582;2023-09-18T12:01:12;86202.13;;;32.99;16.84
80682;BME280;70045;40.200;44.582;2023-09-18T12:03:37;86198.41;;;31.27;18.35
80682;BME280;70045;40.200;44.582;2023-09-18T12:06:05;86188.50;;;29.57;20.61
80682;BME280;70045;40.200;44.582;2023-09-18T12:08:31;86194.22;;;28.79;20.80
80682;BME280;70045;40.200;44.582;2023-09-18T12:10:58;86199.94;;;28.29;21.96
80682;BME280;70045;40.200;44.582;2023-09-18T12:13:27;86192.66;;;27.71;22.37
80682;BME280;70045;40.200;44.582;2023-09-18T12:16:03;86199.91;;;27.00;23.62
80682;BME280;70045;40.200;44.582;2023-09-18T12:18:32;86177.59;;;27.41;23.32
80682;BME280;70045;40.200;44.582;2023-09-18T12:20:58;86185.84;;;29.99;21.45
80682;BME280;70045;40.200;44.582;2023-09-18T12:23:23;86196.16;;;31.54;19.31
80682;BME280;70045;40.200;44.582;2023-09-18T12:25:50;86194.63;;;31.97;18.89
80682;BME280;70045;40.200;44.582;2023-09-18T12:28:22;86189.19;;;33.20;17.80
80682;BME280;70045;40.200;44.582;2023-09-18T12:30:50;86194.44;;;33.51;16.91
80682;BME280;70045;40.200;44.582;2023-09-18T12:33:16;86192.38;;;33.27;17.95
80682;BME280;70045;40.200;44.582;2023-09-18T12:35:42;86194.56;;;33.05;17.68
80682;BME280;70045;40.200;44.582;2023-09-18T12:38:15;86187.69;;;33.35;17.43
80682;BME280;70045;40.200;44.582;2023-09-18T12:40:43;86169.31;;;33.08;17.41
80682;BME280;70045;40.200;44.582;2023-09-18T12:43:12;86176.81;;;33.17;17.62
80682;BME280;70045;40.200;44.582;2023-09-18T12:45:39;86191.31;;;33.30;17.35
80682;BME280;70045;40.200;44.582;2023-09-18T12:48:06;86188.97;;;34.32;16.26
80682;BME280;70045;40.200;44.582;2023-09-18T12:50:31;86186.56;;;34.19;16.48
80682;BME280;70045;40.200;44.582;2023-09-18T12:55:37;86184.53;;;33.62;16.76
80682;BME280;70045;40.200;44.582;2023-09-18T12:58:02;86185.47;;;33.49;17.15
80682;BME280;70045;40.200;44.582;2023-09-18T13:00:28;86180.25;;;33.91;16.76
80682;BME280;70045;40.200;44.582;2023-09-18T13:02:53;86195.78;;;33.68;16.57
80682;BME280;70045;40.200;44.582;2023-09-18T13:05:19;86197.84;;;32.88;17.56
80682;BME280;70045;40.200;44.582;2023-09-18T13:07:48;86189.44;;;32.84;17.58